Time;durP1;ratioP1;P1;durP2;ratioP2;P2;SDS_P1;SDS_P2;PMS_P1;PMS_P2;Temp;Humidity;BMP_temperature;BMP_pressure;BME280_temperature;BME280_humidity;BME280_pressure;Samples;Min_cycle;Max_cycle;Signal;HPM_P1;HPM_P2
2023/04/23 04:02:35;;;;;;;1.67;0.80;;;14.40;81.80;;;;;;5171053;23;20568;-75
2023/04/23 04:05:02;;;;;;;1.60;0.87;;;14.40;82.00;;;;;;4994774;28;20456;-75
2023/04/23 04:07:28;;;;;;;1.70;0.90;;;14.30;82.80;;;;;;4994869;28;20988;-75
2023/04/23 04:09:55;;;;;;;1.70;0.90;;;14.30;82.90;;;;;;4995404;28;20764;-78
2023/04/23 04:12:22;;;;;;;1.73;0.90;;;14.40;82.70;;;;;;4994733;28;20615;-76
2023/04/23 04:14:48;;;;;;;1.70;1.00;;;14.40;82.30;;;;;;5018298;23;20555;-76
2023/04/23 04:17:15;;;;;;;1.80;1.00;;;14.40;82.50;;;;;;4994665;28;21001;-76
2023/04/23 04:19:43;;;;;;;1.63;0.90;;;14.30;83.00;;;;;;4995280;28;20520;-77
2023/04/23 04:22:10;;;;;;;1.73;0.97;;;14.20;83.20;;;;;;4995268;28;20445;-76
2023/04/23 04:24:37;;;;;;;1.57;0.77;;;14.20;83.10;;;;;;4995121;28;20489;-77
2023/04/23 04:27:04;;;;;;;1.70;0.90;;;14.30;82.70;;;;;;4995171;28;20503;-76
2023/04/23 04:29:32;;;;;;;1.67;0.80;;;14.30;82.70;;;;;;4995122;28;20456;-76
2023/04/23 04:32:00;;;;;;;1.70;0.80;;;14.30;82.80;;;;;;4995091;28;20568;-76
2023/04/23 04:34:27;;;;;;;1.60;0.77;;;14.30;82.70;;;;;;4995019;28;20520;-77
2023/04/23 04:36:54;;;;;;;1.60;0.80;;;14.50;82.20;;;;;;4995001;28;20508;-76
2023/04/23 04:39:21;;;;;;;1.70;0.90;;;14.60;81.90;;;;;;4994988;28;20461;-76
2023/04/23 04:41:48;;;;;;;2.03;0.80;;;14.70;81.50;;;;;;4994872;28;20445;-76
2023/04/23 04:44:15;;;;;;;1.83;1.00;;;14.80;81.10;;;;;;4994767;28;20872;-77
2023/04/23 04:46:42;;;;;;;3.57;1.00;;;14.80;81.10;;;;;;4994798;28;20445;-76
2023/04/23 04:49:09;;;;;;;1.63;0.93;;;14.90;80.90;;;;;;4994799;28;20454;-76
2023/04/23 04:51:37;;;;;;;1.73;0.93;;;14.90;80.60;;;;;;4994437;28;20946;-76
2023/04/23 04:54:06;;;;;;;1.60;0.80;;;14.70;81.00;;;;;;4994665;28;20590;-76
2023/04/23 04:56:33;;;;;;;1.50;0.80;;;14.70;81.20;;;;;;4994638;28;20504;-76
2023/04/23 04:58:59;;;;;;;1.60;0.70;;;14.60;81.40;;;;;;4994335;28;20939;-76
2023/04/23 05:01:27;;;;;;;1.70;0.90;;;14.70;81.40;;;;;;4994740;28;20445;-76
2023/04/23 05:03:54;;;;;;;1.70;0.83;;;14.80;81.20;;;;;;4994481;28;20493;-77
2023/04/23 05:06:21;;;;;;;2.37;0.83;;;14.90;80.80;;;;;;4994664;28;20508;-76
2023/04/23 05:08:48;;;;;;;1.67;0.80;;;14.90;80.20;;;;;;4994262;28;20449;-76
2023/04/23 05:11:16;;;;;;;2.00;1.10;;;14.90;80.70;;;;;;4994415;28;20569;-76
2023/04/23 05:13:44;;;;;;;1.80;1.00;;;15.00;80.90;;;;;;4994164;28;20477;-76
2023/04/23 05:16:11;;;;;;;1.87;1.07;;;15.00;80.60;;;;;;4994330;28;20511;-76
2023/04/23 05:18:38;;;;;;;1.80;1.00;;;15.10;80.20;;;;;;4994305;28;20488;-76
2023/04/23 05:21:05;;;;;;;1.57;0.80;;;15.00;79.90;;;;;;4993964;28;20512;-76
2023/04/23 05:23:32;;;;;;;2.10;1.03;;;14.70;81.30;;;;;;4994080;28;20489;-77
2023/04/23 05:25:59;;;;;;;1.70;0.90;;;14.70;81.10;;;;;;4994190;28;20508;-76
2023/04/23 05:28:27;;;;;;;1.90;0.90;;;14.60;81.90;;;;;;4993662;28;20449;-76
2023/04/23 05:30:53;;;;;;;1.60;0.80;;;14.60;82.10;;;;;;4993967;28;20445;-76
2023/04/23 05:33:20;;;;;;;1.60;0.83;;;14.60;81.50;;;;;;4994117;28;20560;-76
2023/04/23 05:35:47;;;;;;;1.50;0.80;;;14.60;82.40;;;;;;4994103;28;20453;-76
2023/04/23 05:38:13;;;;;;;1.60;0.80;;;14.70;81.80;;;;;;4994032;28;20456;-76
2023/04/23 05:40:40;;;;;;;1.57;0.77;;;14.60;82.30;;;;;;4994016;28;20448;-76
2023/04/23 05:43:07;;;;;;;2.50;0.80;;;14.60;81.30;;;;;;4993883;28;20515;-77
2023/04/23 05:45:35;;;;;;;1.70;0.90;;;14.30;82.20;;;;;;4993949;28;20445;-76
2023/04/23 05:48:01;;;;;;;1.60;0.83;;;14.50;83.30;;;;;;4993956;28;20457;-76
2023/04/23 05:50:28;;;;;;;1.70;0.80;;;14.70;83.00;;;;;;4993971;28;20480;-76
2023/04/23 05:52:55;;;;;;;1.90;0.90;;;14.80;81.80;;;;;;4993878;28;20508;-77
2023/04/23 05:55:22;;;;;;;1.63;0.90;;;14.80;81.70;;;;;;4993895;28;20504;-76
2023/04/23 05:57:49;;;;;;;1.70;0.90;;;14.80;80.80;;;;;;4993924;28;20453;-76
2023/04/23 06:00:16;;;;;;;1.50;0.70;;;14.50;81.20;;;;;;4993893;28;20465;-76
2023/04/23 06:02:44;;;;;;;1.60;0.80;;;14.80;81.80;;;;;;4993804;28;20532;-76
2023/04/23 06:05:11;;;;;;;1.63;0.73;;;15.10;81.10;;;;;;4993372;28;21088;-76
2023/04/23 06:07:38;;;;;;;2.00;0.80;;;15.30;80.40;;;;;;4993798;28;20449;-76
2023/04/23 06:10:06;;;;;;;1.50;0.70;;;15.50;78.30;;;;;;4993765;28;20448;-77
2023/04/23 06:12:33;;;;;;;1.70;0.80;;;15.20;77.40;;;;;;4994472;28;20449;-76
2023/04/23 06:14:59;;;;;;;1.60;0.80;;;15.00;79.20;;;;;;4993713;28;20477;-76
2023/04/23 06:17:26;;;;;;;1.60;0.70;;;14.70;79.50;;;;;;4993847;28;20496;-75
2023/04/23 06:19:54;;;;;;;1.50;0.77;;;14.70;79.60;;;;;;4994100;28;20445;-76
2023/04/23 06:22:21;;;;;;;1.50;0.70;;;14.70;79.40;;;;;;4993747;28;20504;-77
2023/04/23 06:24:47;;;;;;;1.60;0.80;;;14.80;78.50;;;;;;5000533;28;20524;-78
2023/04/23 06:27:14;;;;;;;1.50;0.70;;;15.10;79.60;;;;;;4993654;28;20449;-77
2023/04/23 06:29:41;;;;;;;1.90;0.70;;;15.50;77.10;;;;;;4993231;28;20450;-76
2023/04/23 06:32:07;;;;;;;1.57;0.60;;;16.00;77.80;;;;;;4993527;28;20457;-75
2023/04/23 06:34:34;;;;;;;1.50;0.60;;;16.10;75.90;;;;;;4993454;28;20473;-76
2023/04/23 06:37:02;;;;;;;1.70;0.80;;;16.70;75.60;;;;;;4993560;28;21029;-76
2023/04/23 06:39:29;;;;;;;2.20;0.80;;;17.10;74.70;;;;;;4993205;28;20963;-76
2023/04/23 06:41:56;;;;;;;1.60;0.70;;;17.20;72.10;;;;;;4996879;28;20457;-75
2023/04/23 06:44:23;;;;;;;1.60;0.70;;;17.40;72.50;;;;;;4996759;28;20489;-79
2023/04/23 06:46:50;;;;;;;1.60;0.83;;;17.40;71.80;;;;;;4997205;28;20457;-76
2023/04/23 06:49:16;;;;;;;1.60;0.70;;;17.20;72.50;;;;;;4996733;28;20873;-76
2023/04/23 06:51:43;;;;;;;1.53;0.67;;;17.30;72.20;;;;;;4996805;28;20508;-76
2023/04/23 06:54:11;;;;;;;1.60;0.73;;;17.10;70.70;;;;;;4997266;28;20465;-76
2023/04/23 06:56:38;;;;;;;1.60;0.80;;;17.10;71.40;;;;;;4997469;28;20943;-76
2023/04/23 06:59:05;;;;;;;1.50;0.70;;;17.10;70.90;;;;;;4996881;28;20449;-76
2023/04/23 07:01:32;;;;;;;1.50;0.73;;;17.30;71.60;;;;;;4997013;28;20453;-75
2023/04/23 07:03:58;;;;;;;1.50;0.70;;;17.40;69.90;;;;;;4996749;28;20543;-76
2023/04/23 07:06:26;;;;;;;1.50;0.60;;;17.50;69.70;;;;;;4996869;28;20445;-75
2023/04/23 07:08:53;;;;;;;1.57;0.70;;;17.40;69.90;;;;;;4996440;28;20955;-76
2023/04/23 07:11:21;;;;;;;1.90;0.70;;;17.50;68.90;;;;;;4996628;28;20461;-76
2023/04/23 07:13:47;;;;;;;1.60;0.80;;;17.30;69.90;;;;;;4996395;28;20547;-76
2023/04/23 07:16:14;;;;;;;1.50;0.70;;;16.70;70.20;;;;;;4996627;28;21008;-76
2023/04/23 07:18:41;;;;;;;1.50;0.70;;;16.50;71.40;;;;;;4996406;28;20958;-75
2023/04/23 07:21:07;;;;;;;1.70;0.80;;;16.50;71.40;;;;;;4996709;28;20441;-75
2023/04/23 07:23:34;;;;;;;1.70;0.80;;;16.70;72.00;;;;;;4996511;28;20531;-76
2023/04/23 07:26:01;;;;;;;1.50;0.80;;;16.90;70.50;;;;;;4996573;28;20453;-76
2023/04/23 07:28:29;;;;;;;1.47;0.67;;;17.10;71.30;;;;;;4996494;28;20445;-76
2023/04/23 07:30:56;;;;;;;1.60;0.80;;;17.20;69.90;;;;;;4996037;28;20818;-76
2023/04/23 07:33:23;;;;;;;1.50;0.63;;;17.30;71.20;;;;;;4996254;28;20465;-74
2023/04/23 07:35:49;;;;;;;1.73;0.90;;;17.60;71.50;;;;;;4996151;28;20496;-75
2023/04/23 07:38:16;;;;;;;2.50;1.30;;;17.50;69.50;;;;;;4996193;28;20449;-76
2023/04/23 07:40:43;;;;;;;1.57;0.80;;;17.30;68.80;;;;;;4995736;28;20866;-76
2023/04/23 07:43:10;;;;;;;1.60;0.70;;;17.50;70.20;;;;;;4995673;28;20905;-76
2023/04/23 07:45:38;;;;;;;1.77;0.90;;;17.20;69.00;;;;;;4995898;28;20538;-76
2023/04/23 07:48:05;;;;;;;1.60;0.73;;;17.10;69.90;;;;;;4995920;28;20504;-75
2023/04/23 07:50:32;;;;;;;1.70;0.80;;;17.10;68.30;;;;;;4995955;28;20888;-75
2023/04/23 07:52:58;;;;;;;1.60;0.80;;;17.20;67.80;;;;;;4995052;28;20445;-76
2023/04/23 07:55:25;;;;;;;2.13;0.80;;;17.40;67.80;;;;;;4995846;28;20861;-76
2023/04/23 07:57:51;;;;;;;2.33;0.80;;;17.70;67.20;;;;;;4995789;28;20476;-76
2023/04/23 08:00:19;;;;;;;1.60;0.80;;;18.00;66.60;;;;;;4995769;28;20485;-76
2023/04/23 08:02:47;;;;;;;2.07;0.77;;;18.20;65.90;;;;;;4996191;28;20449;-75
2023/04/23 08:05:14;;;;;;;1.53;0.83;;;18.10;64.80;;;;;;4995529;28;20481;-76
2023/04/23 08:07:40;;;;;;;1.50;0.70;;;17.80;65.40;;;;;;4995568;28;20462;-77
2023/04/23 08:10:08;;;;;;;1.50;0.70;;;17.60;65.40;;;;;;4995927;28;20857;-75
2023/04/23 08:12:35;;;;;;;1.60;0.80;;;17.50;65.90;;;;;;4995593;28;20453;-76
2023/04/23 08:15:02;;;;;;;1.67;0.83;;;17.40;67.10;;;;;;4995032;28;20828;-75
2023/04/23 08:17:29;;;;;;;2.07;1.03;;;17.50;67.90;;;;;;4995462;28;20445;-76
2023/04/23 08:19:57;;;;;;;1.57;0.80;;;17.50;67.60;;;;;;4995385;28;20449;-75
2023/04/23 08:22:23;;;;;;;1.60;0.80;;;17.30;65.80;;;;;;4995373;28;20457;-75
2023/04/23 08:24:50;;;;;;;1.50;0.70;;;16.90;67.00;;;;;;4995264;28;20539;-75
2023/04/23 08:27:17;;;;;;;1.70;0.80;;;16.70;67.60;;;;;;4995351;28;20452;-75
2023/04/23 08:29:43;;;;;;;1.57;0.80;;;16.80;66.40;;;;;;4995241;28;20457;-75
2023/04/23 08:32:10;;;;;;;1.60;0.80;;;16.60;68.40;;;;;;4996169;28;20799;-76
2023/04/23 08:34:37;;;;;;;1.60;0.80;;;16.60;69.40;;;;;;4994961;28;20524;-75
2023/04/23 08:37:05;;;;;;;1.60;0.80;;;16.80;69.30;;;;;;4994728;28;20850;-76
2023/04/23 08:39:34;;;;;;;1.60;0.70;;;16.70;66.30;;;;;;4994951;28;20820;-76
2023/04/23 08:42:09;;;;;;;1.70;0.80;;;16.80;67.00;;;;;;4994948;28;20457;-75
2023/04/23 08:44:38;;;;;;;2.07;0.83;;;16.70;67.60;;;;;;4994552;28;20989;-75
2023/04/23 08:47:05;;;;;;;1.53;0.70;;;16.90;67.10;;;;;;4994896;28;20445;-77
2023/04/23 08:49:34;;;;;;;1.60;0.70;;;17.40;66.40;;;;;;4994841;28;20456;-75
2023/04/23 08:52:10;;;;;;;2.80;1.37;;;17.70;65.00;;;;;;4994939;28;20481;-76
2023/04/23 08:54:41;;;;;;;1.70;0.70;;;17.60;64.00;;;;;;4994686;28;20457;-76
2023/04/23 08:57:09;;;;;;;1.77;0.80;;;17.30;66.60;;;;;;4994745;28;20429;-76
2023/04/23 08:59:37;;;;;;;1.60;0.90;;;17.10;66.80;;;;;;4994648;28;20540;-76
2023/04/23 09:02:08;;;;;;;1.60;0.80;;;17.30;65.90;;;;;;4994668;28;20503;-77
2023/04/23 09:04:35;;;;;;;1.60;0.80;;;17.40;65.80;;;;;;4994403;28;20500;-75
2023/04/23 09:07:03;;;;;;;1.90;0.83;;;17.30;65.80;;;;;;4994220;28;21013;-77
2023/04/23 09:09:31;;;;;;;1.70;0.80;;;17.50;66.00;;;;;;4994155;28;20814;-75
2023/04/23 09:11:58;;;;;;;1.60;0.70;;;17.40;67.20;;;;;;4994118;28;20947;-75
2023/04/23 09:14:26;;;;;;;2.77;0.90;;;17.40;66.90;;;;;;4994033;28;20474;-75
2023/04/23 09:16:53;;;;;;;1.50;0.70;;;17.80;64.80;;;;;;4994570;28;20449;-75
2023/04/23 09:19:20;;;;;;;1.50;0.80;;;17.90;64.80;;;;;;4994430;28;20500;-75
2023/04/23 09:21:46;;;;;;;1.70;0.90;;;17.80;64.70;;;;;;4994342;28;20512;-74
2023/04/23 09:24:15;;;;;;;1.80;0.83;;;17.40;63.60;;;;;;4994371;28;20473;-75
2023/04/23 09:26:49;;;;;;;1.70;0.90;;;17.60;62.80;;;;;;4994059;28;20464;-75
2023/04/23 09:29:17;;;;;;;1.90;0.80;;;17.70;63.50;;;;;;4994320;28;20585;-75
2023/04/23 09:31:46;;;;;;;1.50;0.70;;;18.10;64.00;;;;;;4993763;28;20977;-75
2023/04/23 09:34:16;;;;;;;1.90;1.27;;;18.20;61.40;;;;;;4993992;28;20512;-75
2023/04/23 09:36:44;;;;;;;1.50;0.80;;;17.90;61.20;;;;;;4995359;28;20480;-75
2023/04/23 09:39:14;;;;;;;1.60;0.70;;;18.10;63.40;;;;;;4994220;28;20453;-75
2023/04/23 09:41:40;;;;;;;1.70;0.77;;;18.20;60.00;;;;;;4994008;28;20519;-75
2023/04/23 09:44:09;;;;;;;1.60;0.80;;;18.00;60.70;;;;;;4993942;28;20477;-75
2023/04/23 09:46:37;;;;;;;1.70;0.80;;;17.90;61.50;;;;;;4993570;28;20997;-75
2023/04/23 09:49:06;;;;;;;1.60;0.73;;;18.10;61.40;;;;;;4993920;28;20457;-76
2023/04/23 09:51:35;;;;;;;1.70;0.80;;;17.90;59.10;;;;;;4993895;28;20495;-76
2023/04/23 09:54:03;;;;;;;1.97;0.90;;;17.80;56.70;;;;;;4993888;28;20524;-76
2023/04/23 09:56:30;;;;;;;1.70;0.80;;;17.70;58.30;;;;;;4993852;28;20537;-75
2023/04/23 09:58:57;;;;;;;1.50;0.80;;;18.00;59.10;;;;;;4994022;28;20467;-75
2023/04/23 10:01:30;;;;;;;1.60;0.70;;;18.10;59.60;;;;;;4993529;28;20508;-76
2023/04/23 10:03:57;;;;;;;1.70;0.83;;;18.50;60.30;;;;;;4993779;28;20469;-76
2023/04/23 10:06:30;;;;;;;1.70;0.73;;;18.70;60.20;;;;;;4993754;28;20485;-76
2023/04/23 10:08:57;;;;;;;1.90;0.90;;;18.80;58.80;;;;;;4993886;28;20449;-76
2023/04/23 10:11:24;;;;;;;1.90;0.70;;;18.90;58.70;;;;;;4993915;28;20497;-76
2023/04/23 10:13:54;;;;;;;1.60;0.80;;;19.20;57.60;;;;;;5107641;23;22453;-76
2023/04/23 10:16:22;;;;;;;1.63;0.83;;;18.90;58.90;;;;;;4996309;28;20527;-75
2023/04/23 10:18:51;;;;;;;1.50;0.77;;;18.30;60.20;;;;;;4997539;28;20536;-76
2023/04/23 10:21:20;;;;;;;1.77;0.80;;;18.20;60.40;;;;;;4997371;28;20818;-76
2023/04/23 10:23:49;;;;;;;1.50;0.80;;;18.30;61.50;;;;;;4997229;28;20523;-76
2023/04/23 10:26:16;;;;;;;2.33;0.80;;;18.60;59.90;;;;;;4997064;28;20481;-76
2023/04/23 10:28:47;;;;;;;1.50;0.80;;;18.70;59.40;;;;;;4997123;28;20503;-76
2023/04/23 10:31:15;;;;;;;1.40;0.63;;;18.80;61.50;;;;;;4997143;28;20436;-76
2023/04/23 10:33:43;;;;;;;1.50;0.70;;;19.10;59.00;;;;;;4997206;28;20473;-76
2023/04/23 10:36:12;;;;;;;1.50;0.70;;;19.10;59.30;;;;;;4997276;28;20445;-76
2023/04/23 10:38:40;;;;;;;1.67;0.90;;;18.60;59.40;;;;;;4996788;28;20499;-76
2023/04/23 10:41:08;;;;;;;1.50;0.70;;;18.60;60.60;;;;;;4997012;28;20453;-76
2023/04/23 10:43:35;;;;;;;1.80;0.80;;;18.90;59.40;;;;;;4996952;28;20473;-76
2023/04/23 10:46:02;;;;;;;1.60;0.80;;;19.10;59.00;;;;;;4996879;28;20548;-76
2023/04/23 10:48:29;;;;;;;1.60;0.80;;;19.10;58.60;;;;;;4997101;28;20488;-76
2023/04/23 10:50:59;;;;;;;1.50;0.70;;;19.40;58.40;;;;;;4996986;28;20445;-75
2023/04/23 10:53:31;;;;;;;1.50;0.73;;;18.70;58.40;;;;;;4996800;28;20449;-75
2023/04/23 10:56:06;;;;;;;1.50;0.80;;;18.50;58.70;;;;;;4996859;28;20449;-76
2023/04/23 10:58:49;;;;;;;2.23;0.80;;;18.70;60.80;;;;;;4996252;28;20868;-76
2023/04/23 11:01:17;;;;;;;2.03;0.90;;;18.80;60.80;;;;;;4996721;28;20530;-76
2023/04/23 11:03:44;;;;;;;1.50;0.70;;;19.20;59.20;;;;;;4996978;28;20520;-76
2023/04/23 11:06:14;;;;;;;1.53;0.67;;;19.70;57.20;;;;;;4996534;28;20563;-77
2023/04/23 11:08:52;;;;;;;1.40;0.60;;;20.00;57.00;;;;;;4997018;28;20453;-76
2023/04/23 11:11:24;;;;;;;1.80;0.80;;;20.00;54.50;;;;;;4996972;28;20530;-77
2023/04/23 11:13:52;;;;;;;1.60;0.70;;;20.00;57.60;;;;;;4996609;28;20505;-76
2023/04/23 11:16:22;;;;;;;1.60;0.80;;;20.10;56.30;;;;;;4996668;28;20849;-76
2023/04/23 11:19:01;;;;;;;1.50;0.80;;;20.10;56.00;;;;;;4996189;28;20867;-75
2023/04/23 11:21:57;;;;;;;1.90;0.90;;;19.80;55.50;;;;;;4995923;28;20891;-75
2023/04/23 11:24:27;;;;;;;1.90;0.77;;;19.80;56.10;;;;;;4996045;28;20552;-75
2023/04/23 11:26:53;;;;;;;1.60;0.80;;;19.40;56.20;;;;;;4995239;28;20484;-75
2023/04/23 11:29:22;;;;;;;1.53;0.80;;;19.30;56.40;;;;;;4996119;28;20449;-73
2023/04/23 11:31:49;;;;;;;1.50;0.70;;;19.10;56.00;;;;;;4996015;28;20451;-74
2023/04/23 11:34:16;;;;;;;1.70;0.70;;;19.20;59.50;;;;;;4996121;28;20473;-76
2023/04/23 11:36:43;;;;;;;2.10;0.70;;;19.40;59.20;;;;;;4995849;28;20867;-75
2023/04/23 11:39:11;;;;;;;3.50;0.73;;;19.70;58.90;;;;;;4995948;28;20499;-76
2023/04/23 11:41:39;;;;;;;1.80;0.90;;;19.80;55.80;;;;;;4995765;28;20453;-75
2023/04/23 11:44:07;;;;;;;1.50;0.70;;;19.90;56.40;;;;;;4995738;28;20469;-74
2023/04/23 11:46:33;;;;;;;2.37;0.87;;;20.20;58.10;;;;;;4995716;28;20867;-73
2023/04/23 11:49:00;;;;;;;1.70;0.80;;;20.60;55.30;;;;;;4995723;28;20457;-73
2023/04/23 11:51:28;;;;;;;1.50;0.70;;;20.50;55.10;;;;;;4995840;28;20860;-74
2023/04/23 11:53:54;;;;;;;1.60;0.80;;;20.30;55.30;;;;;;4995849;28;20480;-73
2023/04/23 11:56:22;;;;;;;1.70;0.80;;;20.10;55.80;;;;;;4995820;28;20454;-74
2023/04/23 11:58:58;;;;;;;1.43;0.60;;;19.70;56.60;;;;;;4996581;28;20453;-73
2023/04/23 12:01:25;;;;;;;1.60;0.70;;;19.90;56.50;;;;;;4995865;28;20496;-75
2023/04/23 12:03:52;;;;;;;1.50;0.60;;;19.80;56.90;;;;;;4995628;28;20473;-73
2023/04/23 12:06:20;;;;;;;1.60;0.87;;;20.10;55.60;;;;;;4995567;28;20947;-73
2023/04/23 12:08:47;;;;;;;1.50;0.80;;;20.10;56.60;;;;;;4995630;28;20454;-74
2023/04/23 12:11:14;;;;;;;1.50;0.70;;;20.50;55.50;;;;;;4995404;28;20449;-74
2023/04/23 12:13:41;;;;;;;1.50;0.70;;;20.30;55.40;;;;;;4995175;28;20477;-74
2023/04/23 12:16:09;;;;;;;1.60;0.73;;;19.90;55.90;;;;;;4995965;28;20903;-74
2023/04/23 12:18:43;;;;;;;1.60;0.80;;;19.70;56.80;;;;;;4995662;28;20438;-75
2023/04/23 12:21:11;;;;;;;1.60;0.80;;;19.30;57.70;;;;;;4995652;28;20488;-75
2023/04/23 12:23:38;;;;;;;1.60;0.70;;;19.40;57.90;;;;;;4995490;28;20476;-74
2023/04/23 12:26:10;;;;;;;1.70;0.80;;;19.70;57.20;;;;;;4995202;28;20481;-75
2023/04/23 12:28:45;;;;;;;1.60;0.80;;;19.80;56.90;;;;;;4995717;28;20473;-74
2023/04/23 12:31:19;;;;;;;1.50;0.73;;;20.20;56.70;;;;;;4995140;28;20492;-74
2023/04/23 12:33:46;;;;;;;1.50;0.70;;;20.40;55.20;;;;;;4995077;28;20497;-74
2023/04/23 12:36:15;;;;;;;1.50;0.70;;;20.10;56.60;;;;;;4995203;28;20449;-74
2023/04/23 12:38:42;;;;;;;1.70;0.70;;;20.20;56.90;;;;;;4994648;28;20504;-73
2023/04/23 12:41:09;;;;;;;1.70;0.70;;;20.50;56.40;;;;;;4995020;28;20461;-75
2023/04/23 12:43:36;;;;;;;1.63;0.80;;;21.00;56.20;;;;;;4994968;28;20537;-75
2023/04/23 12:46:02;;;;;;;1.60;0.80;;;21.50;55.70;;;;;;4995352;28;20531;-74
2023/04/23 12:48:30;;;;;;;1.83;0.90;;;22.00;54.00;;;;;;4994914;28;20457;-73
2023/04/23 12:50:57;;;;;;;1.50;0.70;;;21.90;51.80;;;;;;4994957;28;20457;-74
2023/04/23 12:53:24;;;;;;;1.60;0.80;;;22.00;51.70;;;;;;4994788;28;20453;-77
2023/04/23 12:55:50;;;;;;;1.47;0.60;;;22.10;50.90;;;;;;4994897;28;20971;-77
2023/04/23 12:58:17;;;;;;;1.50;0.70;;;22.30;49.00;;;;;;4995135;28;20452;-75
2023/04/23 13:00:44;;;;;;;1.60;0.70;;;22.40;49.00;;;;;;4995010;28;20520;-74
2023/04/23 13:03:12;;;;;;;1.53;0.70;;;22.60;49.30;;;;;;4994650;28;20461;-74
2023/04/23 13:05:41;;;;;;;1.43;0.63;;;22.50;49.40;;;;;;4994479;28;20481;-74
2023/04/23 13:08:07;;;;;;;1.60;0.80;;;22.20;49.30;;;;;;4994626;28;20458;-73
2023/04/23 13:10:34;;;;;;;1.50;0.70;;;22.10;50.20;;;;;;4994428;28;20449;-74
2023/04/23 13:13:01;;;;;;;1.60;0.77;;;21.50;50.80;;;;;;4994334;28;20461;-75
2023/04/23 13:15:27;;;;;;;1.60;0.70;;;21.90;51.60;;;;;;4994559;28;20540;-74
2023/04/23 13:17:54;;;;;;;1.70;0.90;;;22.30;52.80;;;;;;4994033;28;20453;-74
2023/04/23 13:20:21;;;;;;;1.60;0.80;;;22.70;49.70;;;;;;4994703;28;20461;-75
2023/04/23 13:22:49;;;;;;;1.50;0.67;;;22.60;48.60;;;;;;4994046;28;20511;-75
2023/04/23 13:25:16;;;;;;;1.40;0.57;;;22.20;50.40;;;;;;4993806;28;20473;-76
2023/04/23 13:27:42;;;;;;;1.50;0.70;;;22.40;50.80;;;;;;4993777;28;21079;-76
2023/04/23 13:30:10;;;;;;;1.73;0.70;;;22.50;49.90;;;;;;4994134;28;20464;-75
2023/04/23 13:32:36;;;;;;;1.53;0.67;;;22.60;48.70;;;;;;4993892;28;20457;-76
2023/04/23 13:35:03;;;;;;;1.60;0.80;;;22.80;48.20;;;;;;4994844;28;20884;-79
2023/04/23 13:37:31;;;;;;;1.60;0.70;;;22.80;47.90;;;;;;4998626;28;20441;-78
2023/04/23 13:39:59;;;;;;;1.87;0.70;;;22.70;47.30;;;;;;4994388;28;20481;-78
2023/04/23 13:42:25;;;;;;;1.60;0.83;;;22.50;48.90;;;;;;4994200;28;20453;-78
2023/04/23 13:44:52;;;;;;;1.43;0.67;;;22.40;48.20;;;;;;4995571;28;20468;-78
2023/04/23 13:47:19;;;;;;;1.70;0.70;;;22.40;48.80;;;;;;4995755;28;20492;-79
2023/04/23 13:49:45;;;;;;;1.60;0.73;;;22.50;49.00;;;;;;4997452;28;20797;-79
2023/04/23 13:52:12;;;;;;;2.97;1.33;;;22.90;47.20;;;;;;4997260;28;20458;-79
2023/04/23 13:54:39;;;;;;;2.00;0.80;;;23.30;46.80;;;;;;4998205;28;20461;-78
2023/04/23 13:57:07;;;;;;;1.57;0.70;;;23.20;47.70;;;;;;4997894;28;20481;-79
2023/04/23 13:59:35;;;;;;;1.53;0.80;;;22.70;47.70;;;;;;4997715;28;20460;-80
2023/04/23 14:02:01;;;;;;;1.53;0.70;;;22.30;48.00;;;;;;5000080;28;20472;-80
2023/04/23 14:04:28;;;;;;;1.80;0.80;;;22.70;49.40;;;;;;5000252;28;20480;-81
2023/04/23 14:06:55;;;;;;;1.60;0.90;;;23.10;47.30;;;;;;4997544;28;20508;-78
2023/04/23 14:09:22;;;;;;;1.80;0.70;;;23.10;48.60;;;;;;4995060;28;20453;-78
2023/04/23 14:11:50;;;;;;;1.70;0.70;;;22.90;48.00;;;;;;4994147;28;20445;-78
2023/04/23 14:14:18;;;;;;;1.50;0.70;;;22.30;48.30;;;;;;4993557;28;20481;-78
2023/04/23 14:16:44;;;;;;;1.50;0.70;;;22.10;50.10;;;;;;4996150;28;20438;-78
2023/04/23 14:19:11;;;;;;;1.60;0.70;;;21.90;50.40;;;;;;4996704;28;20917;-79
2023/04/23 14:21:38;;;;;;;1.77;0.80;;;21.90;50.40;;;;;;4996173;28;20465;-78
2023/04/23 14:24:10;;;;;;;1.60;0.80;;;21.90;50.40;;;;;;4994408;28;20476;-79
2023/04/23 14:26:41;;;;;;;1.50;0.70;;;21.90;48.70;;;;;;4994772;28;20505;-79
2023/04/23 14:29:10;;;;;;;1.60;0.90;;;21.70;51.10;;;;;;4995115;28;20444;-76
2023/04/23 14:31:39;;;;;;;1.50;0.70;;;21.90;50.90;;;;;;4996481;28;20453;-80
2023/04/23 14:34:06;;;;;;;1.50;0.70;;;22.00;50.80;;;;;;4995971;28;20473;-78
2023/04/23 14:36:32;;;;;;;1.50;0.70;;;21.40;49.20;;;;;;4995412;28;20445;-78
2023/04/23 14:39:04;;;;;;;1.60;0.80;;;21.00;50.20;;;;;;4994713;28;20441;-79
2023/04/23 14:41:31;;;;;;;2.27;0.70;;;21.10;49.40;;;;;;4994407;28;20532;-78
2023/04/23 14:43:59;;;;;;;2.27;0.80;;;21.10;50.10;;;;;;4994316;28;20509;-79
2023/04/23 14:46:26;;;;;;;1.50;0.63;;;21.10;49.50;;;;;;4995881;28;20481;-79
2023/04/23 14:48:54;;;;;;;1.40;0.67;;;21.30;50.30;;;;;;4997585;28;20461;-79
2023/04/23 14:51:21;;;;;;;1.50;0.70;;;21.60;47.70;;;;;;4996311;28;20516;-78
2023/04/23 14:53:48;;;;;;;1.43;0.70;;;21.60;49.00;;;;;;4996278;28;20504;-79
2023/04/23 14:56:14;;;;;;;1.50;0.67;;;21.60;48.10;;;;;;4996921;28;20503;-79
2023/04/23 14:58:41;;;;;;;1.60;0.80;;;21.90;49.20;;;;;;4997032;28;20464;-79
2023/04/23 15:01:08;;;;;;;1.60;0.80;;;22.00;48.60;;;;;;4996809;28;21058;-78
2023/04/23 15:03:35;;;;;;;2.60;0.80;;;22.00;48.80;;;;;;4997740;28;20559;-78
2023/04/23 15:06:03;;;;;;;1.90;0.80;;;22.10;49.20;;;;;;4997629;28;20460;-79
2023/04/23 15:08:30;;;;;;;1.80;0.73;;;22.10;50.20;;;;;;4998527;28;20504;-78
2023/04/23 15:10:58;;;;;;;1.63;0.70;;;21.80;49.50;;;;;;4997512;28;21007;-78
2023/04/23 15:13:43;;;;;;;1.60;0.80;;;21.50;50.20;;;;;;4999289;28;20453;-79
2023/04/23 15:16:19;;;;;;;1.50;0.80;;;21.30;50.80;;;;;;4999233;28;20493;-78
2023/04/23 15:18:46;;;;;;;1.50;0.70;;;21.30;51.30;;;;;;4999282;28;20487;-79
2023/04/23 15:21:14;;;;;;;1.60;0.80;;;21.10;50.90;;;;;;4997739;28;20942;-78
2023/04/23 15:23:41;;;;;;;2.83;1.00;;;20.80;51.00;;;;;;4998805;28;20469;-79
2023/04/23 15:26:07;;;;;;;2.27;1.20;;;20.60;51.60;;;;;;4999837;28;20848;-78
2023/04/23 15:28:34;;;;;;;2.43;1.00;;;20.60;52.70;;;;;;5004450;28;20456;-79
2023/04/23 15:31:01;;;;;;;2.20;0.83;;;20.30;53.10;;;;;;5004284;28;20485;-76
2023/04/23 15:33:29;;;;;;;1.80;0.83;;;19.60;55.30;;;;;;5000998;28;20457;-78
2023/04/23 15:35:55;;;;;;;1.80;0.80;;;19.50;56.90;;;;;;4997840;28;20449;-78
2023/04/23 15:38:23;;;;;;;1.73;0.90;;;19.30;59.40;;;;;;4996857;28;20500;-77
2023/04/23 15:40:50;;;;;;;1.70;0.70;;;18.90;64.30;;;;;;4997405;28;20452;-76
2023/04/23 15:43:17;;;;;;;3.07;1.00;;;18.90;64.70;;;;;;4996678;28;20445;-75
2023/04/23 15:45:47;;;;;;;1.87;0.90;;;19.10;65.30;;;;;;4995471;28;20445;-76
2023/04/23 15:48:14;;;;;;;2.10;0.97;;;19.30;66.40;;;;;;4995447;28;20484;-76
2023/04/23 15:50:41;;;;;;;1.60;0.90;;;19.30;65.30;;;;;;4994914;28;20900;-76
2023/04/23 15:53:07;;;;;;;1.60;0.80;;;19.50;66.20;;;;;;4995470;28;20457;-76
2023/04/23 15:55:37;;;;;;;2.00;0.80;;;19.80;64.30;;;;;;4994994;28;20469;-77
2023/04/23 15:58:04;;;;;;;1.63;0.80;;;19.80;64.20;;;;;;4995521;28;20489;-77
2023/04/23 16:00:32;;;;;;;1.97;1.07;;;19.90;66.00;;;;;;4995176;28;20456;-77
2023/04/23 16:02:59;;;;;;;1.70;0.80;;;19.90;67.80;;;;;;4995512;28;20512;-77
2023/04/23 16:05:28;;;;;;;1.60;0.80;;;19.90;67.20;;;;;;4995546;28;20466;-77
2023/04/23 16:07:55;;;;;;;2.17;0.90;;;19.90;68.60;;;;;;4995446;28;20566;-76
2023/04/23 16:10:22;;;;;;;1.70;0.90;;;19.70;67.80;;;;;;4995722;28;20453;-77
2023/04/23 16:12:50;;;;;;;1.80;1.10;;;19.60;68.10;;;;;;4994611;28;20449;-78
2023/04/23 16:15:17;;;;;;;2.37;1.50;;;19.60;70.00;;;;;;4995826;28;20474;-77
2023/04/23 16:17:44;;;;;;;3.03;2.57;;;19.50;66.50;;;;;;4995158;28;20820;-77
2023/04/23 16:20:11;;;;;;;5.13;2.70;;;19.30;65.50;;;;;;4995065;28;21002;-77
2023/04/23 16:22:38;;;;;;;3.93;3.00;;;19.10;69.00;;;;;;4995396;28;20453;-78
2023/04/23 16:25:05;;;;;;;1.80;0.80;;;18.80;70.80;;;;;;4995389;28;20882;-76
2023/04/23 16:27:32;;;;;;;2.27;0.93;;;18.40;70.90;;;;;;4995119;28;20535;-77
2023/04/23 16:30:01;;;;;;;1.90;0.90;;;18.00;75.50;;;;;;4995232;28;20453;-77
2023/04/23 16:32:28;;;;;;;1.87;0.87;;;17.30;75.00;;;;;;4995145;28;20449;-76
2023/04/23 16:34:55;;;;;;;2.00;0.77;;;16.90;74.50;;;;;;4995091;28;20473;-77
2023/04/23 16:37:21;;;;;;;2.67;0.97;;;16.80;74.20;;;;;;4994974;28;20541;-77
2023/04/23 16:39:48;;;;;;;2.00;0.93;;;16.50;74.50;;;;;;4995140;28;20453;-77
2023/04/23 16:42:15;;;;;;;2.20;0.90;;;16.50;76.50;;;;;;4994353;28;20449;-76
2023/04/23 16:44:41;;;;;;;1.90;0.90;;;16.70;76.80;;;;;;4994327;28;20469;-76
2023/04/23 16:47:09;;;;;;;2.27;1.07;;;16.80;75.70;;;;;;4994260;28;20535;-76
2023/04/23 16:49:36;;;;;;;3.17;0.80;;;17.00;75.90;;;;;;4994241;28;20449;-76
2023/04/23 16:52:03;;;;;;;3.30;1.43;;;17.20;76.00;;;;;;4994356;28;20642;-77